sensor_id;sensor_type;location;lat;lon;timestamp;P1;durP1;ratioP1;P2;durP2;ratioP2
24485;SDS011;13449;49.374;8.584;2023-08-01T00:00:45;11.77;;;3.70;;
24485;SDS011;13449;49.374;8.584;2023-08-01T00:03:11;9.95;;;3.25;;
24485;SDS011;13449;49.374;8.584;2023-08-01T00:05:40;10.27;;;3.15;;
24485;SDS011;13449;49.374;8.584;2023-08-01T00:08:11;8.65;;;3.25;;
24485;SDS011;13449;49.374;8.584;2023-08-01T00:10:42;11.20;;;3.92;;
24485;SDS011;13449;49.374;8.584;2023-08-01T00:13:09;9.68;;;3.63;;
24485;SDS011;13449;49.374;8.584;2023-08-01T00:15:35;8.77;;;3.58;;
24485;SDS011;13449;49.374;8.584;2023-08-01T00:18:02;10.30;;;3.63;;
24485;SDS011;13449;49.374;8.584;2023-08-01T00:20:29;13.88;;;4.10;;
24485;SDS011;13449;49.374;8.584;2023-08-01T00:22:55;14.82;;;3.67;;
24485;SDS011;13449;49.374;8.584;2023-08-01T00:25:24;5.75;;;3.33;;
24485;SDS011;13449;49.374;8.584;2023-08-01T00:27:51;9.45;;;3.60;;
24485;SDS011;13449;49.374;8.584;2023-08-01T00:30:17;13.57;;;3.65;;
24485;SDS011;13449;49.374;8.584;2023-08-01T00:32:47;6.53;;;3.42;;
24485;SDS011;13449;49.374;8.584;2023-08-01T00:35:13;10.73;;;3.92;;
24485;SDS011;13449;49.374;8.584;2023-08-01T00:37:40;28.95;;;5.50;;
24485;SDS011;13449;49.374;8.584;2023-08-01T00:40:07;7.88;;;4.40;;
24485;SDS011;13449;49.374;8.584;2023-08-01T00:42:36;8.27;;;3.33;;
24485;SDS011;13449;49.374;8.584;2023-08-01T00:45:11;7.18;;;3.38;;
24485;SDS011;13449;49.374;8.584;2023-08-01T00:47:38;12.07;;;3.47;;
24485;SDS011;13449;49.374;8.584;2023-08-01T00:50:05;10.50;;;3.80;;
24485;SDS011;13449;49.374;8.584;2023-08-01T00:52:32;7.20;;;3.53;;
24485;SDS011;13449;49.374;8.584;2023-08-01T00:54:59;7.90;;;3.95;;
24485;SDS011;13449;49.374;8.584;2023-08-01T00:57:25;7.75;;;3.85;;
24485;SDS011;13449;49.374;8.584;2023-08-01T00:59:52;7.07;;;3.60;;
24485;SDS011;13449;49.374;8.584;2023-08-01T01:02:18;9.40;;;3.63;;
24485;SDS011;13449;49.374;8.584;2023-08-01T01:04:47;9.85;;;3.90;;
24485;SDS011;13449;49.374;8.584;2023-08-01T01:07:14;9.95;;;3.70;;
24485;SDS011;13449;49.374;8.584;2023-08-01T01:09:43;6.45;;;4.15;;
24485;SDS011;13449;49.374;8.584;2023-08-01T01:12:10;10.23;;;3.97;;
24485;SDS011;13449;49.374;8.584;2023-08-01T01:14:39;4.57;;;3.45;;
24485;SDS011;13449;49.374;8.584;2023-08-01T01:17:05;6.53;;;3.97;;
24485;SDS011;13449;49.374;8.584;2023-08-01T01:19:32;10.30;;;3.85;;
24485;SDS011;13449;49.374;8.584;2023-08-01T01:22:05;8.10;;;3.83;;
24485;SDS011;13449;49.374;8.584;2023-08-01T01:24:33;5.38;;;3.90;;
24485;SDS011;13449;49.374;8.584;2023-08-01T01:27:02;17.30;;;4.47;;
24485;SDS011;13449;49.374;8.584;2023-08-01T01:29:32;12.65;;;4.22;;
24485;SDS011;13449;49.374;8.584;2023-08-01T01:32:00;16.65;;;4.22;;
24485;SDS011;13449;49.374;8.584;2023-08-01T01:34:28;10.77;;;3.92;;
24485;SDS011;13449;49.374;8.584;2023-08-01T01:36:54;10.98;;;3.67;;
24485;SDS011;13449;49.374;8.584;2023-08-01T01:39:23;21.27;;;4.40;;
24485;SDS011;13449;49.374;8.584;2023-08-01T01:41:52;12.23;;;4.18;;
24485;SDS011;13449;49.374;8.584;2023-08-01T01:44:21;7.53;;;3.65;;
24485;SDS011;13449;49.374;8.584;2023-08-01T01:46:48;13.52;;;4.00;;
24485;SDS011;13449;49.374;8.584;2023-08-01T01:49:16;7.97;;;3.67;;
24485;SDS011;13449;49.374;8.584;2023-08-01T01:51:42;5.97;;;3.78;;
24485;SDS011;13449;49.374;8.584;2023-08-01T01:54:08;12.23;;;3.80;;
24485;SDS011;13449;49.374;8.584;2023-08-01T01:56:35;8.48;;;3.38;;
24485;SDS011;13449;49.374;8.584;2023-08-01T01:59:02;5.47;;;3.47;;
24485;SDS011;13449;49.374;8.584;2023-08-01T02:01:28;11.30;;;3.75;;
24485;SDS011;13449;49.374;8.584;2023-08-01T02:03:57;9.52;;;4.38;;
24485;SDS011;13449;49.374;8.584;2023-08-01T02:06:24;10.32;;;3.88;;
24485;SDS011;13449;49.374;8.584;2023-08-01T02:08:50;17.08;;;3.42;;
24485;SDS011;13449;49.374;8.584;2023-08-01T02:11:17;11.27;;;3.58;;
24485;SDS011;13449;49.374;8.584;2023-08-01T02:13:43;8.90;;;3.90;;
24485;SDS011;13449;49.374;8.584;2023-08-01T02:16:10;10.20;;;3.60;;
24485;SDS011;13449;49.374;8.584;2023-08-01T02:18:37;13.07;;;4.53;;
24485;SDS011;13449;49.374;8.584;2023-08-01T02:21:06;12.38;;;4.18;;
24485;SDS011;13449;49.374;8.584;2023-08-01T02:23:32;7.78;;;3.58;;
24485;SDS011;13449;49.374;8.584;2023-08-01T02:26:02;9.32;;;3.60;;
24485;SDS011;13449;49.374;8.584;2023-08-01T02:28:33;21.67;;;4.38;;
24485;SDS011;13449;49.374;8.584;2023-08-01T02:31:00;9.70;;;4.00;;
24485;SDS011;13449;49.374;8.584;2023-08-01T02:33:26;7.72;;;3.47;;
24485;SDS011;13449;49.374;8.584;2023-08-01T02:35:58;11.00;;;4.18;;
24485;SDS011;13449;49.374;8.584;2023-08-01T02:38:24;13.02;;;4.18;;
24485;SDS011;13449;49.374;8.584;2023-08-01T02:40:51;7.07;;;4.28;;
24485;SDS011;13449;49.374;8.584;2023-08-01T02:43:17;12.68;;;4.18;;
24485;SDS011;13449;49.374;8.584;2023-08-01T02:45:44;11.98;;;4.32;;
24485;SDS011;13449;49.374;8.584;2023-08-01T02:48:10;5.82;;;3.72;;
24485;SDS011;13449;49.374;8.584;2023-08-01T02:50:37;7.53;;;3.85;;
24485;SDS011;13449;49.374;8.584;2023-08-01T02:53:06;13.60;;;3.90;;
24485;SDS011;13449;49.374;8.584;2023-08-01T02:55:32;8.52;;;3.88;;
24485;SDS011;13449;49.374;8.584;2023-08-01T02:57:59;8.15;;;3.92;;
24485;SDS011;13449;49.374;8.584;2023-08-01T03:00:25;7.30;;;3.50;;
24485;SDS011;13449;49.374;8.584;2023-08-01T03:02:52;16.83;;;3.90;;
24485;SDS011;13449;49.374;8.584;2023-08-01T03:05:21;12.27;;;3.75;;
24485;SDS011;13449;49.374;8.584;2023-08-01T03:07:47;13.02;;;5.00;;
24485;SDS011;13449;49.374;8.584;2023-08-01T03:10:16;9.30;;;4.05;;
24485;SDS011;13449;49.374;8.584;2023-08-01T03:13:01;9.73;;;3.88;;
24485;SDS011;13449;49.374;8.584;2023-08-01T03:15:27;14.63;;;3.80;;
24485;SDS011;13449;49.374;8.584;2023-08-01T03:17:54;18.05;;;4.13;;
24485;SDS011;13449;49.374;8.584;2023-08-01T03:20:23;10.80;;;3.97;;
24485;SDS011;13449;49.374;8.584;2023-08-01T03:22:49;10.32;;;4.70;;
24485;SDS011;13449;49.374;8.584;2023-08-01T03:25:16;12.23;;;4.20;;
24485;SDS011;13449;49.374;8.584;2023-08-01T03:27:45;9.85;;;3.63;;
24485;SDS011;13449;49.374;8.584;2023-08-01T03:30:11;15.93;;;3.97;;
24485;SDS011;13449;49.374;8.584;2023-08-01T03:32:39;18.13;;;4.07;;
24485;SDS011;13449;49.374;8.584;2023-08-01T03:35:06;14.25;;;4.22;;
24485;SDS011;13449;49.374;8.584;2023-08-01T03:37:33;7.60;;;3.92;;
24485;SDS011;13449;49.374;8.584;2023-08-01T03:40:02;6.82;;;3.65;;
24485;SDS011;13449;49.374;8.584;2023-08-01T03:42:28;10.15;;;4.38;;
24485;SDS011;13449;49.374;8.584;2023-08-01T03:44:55;9.50;;;3.95;;
24485;SDS011;13449;49.374;8.584;2023-08-01T03:47:22;7.90;;;3.60;;
24485;SDS011;13449;49.374;8.584;2023-08-01T03:49:48;13.15;;;3.50;;
24485;SDS011;13449;49.374;8.584;2023-08-01T03:52:17;14.57;;;3.70;;
24485;SDS011;13449;49.374;8.584;2023-08-01T03:54:44;6.15;;;3.47;;
24485;SDS011;13449;49.374;8.584;2023-08-01T03:57:10;5.53;;;3.75;;
24485;SDS011;13449;49.374;8.584;2023-08-01T03:59:36;11.80;;;4.03;;
24485;SDS011;13449;49.374;8.584;2023-08-01T04:02:03;8.05;;;4.07;;
24485;SDS011;13449;49.374;8.584;2023-08-01T04:04:30;13.50;;;3.80;;
24485;SDS011;13449;49.374;8.584;2023-08-01T04:06:57;12.73;;;3.63;;
24485;SDS011;13449;49.374;8.584;2023-08-01T04:09:24;12.27;;;3.58;;
24485;SDS011;13449;49.374;8.584;2023-08-01T04:11:50;16.88;;;4.22;;
24485;SDS011;13449;49.374;8.584;2023-08-01T04:14:17;10.95;;;3.58;;
24485;SDS011;13449;49.374;8.584;2023-08-01T04:16:43;8.35;;;4.13;;
24485;SDS011;13449;49.374;8.584;2023-08-01T04:19:10;7.85;;;3.47;;
24485;SDS011;13449;49.374;8.584;2023-08-01T04:21:36;8.70;;;4.15;;
24485;SDS011;13449;49.374;8.584;2023-08-01T04:24:03;9.13;;;3.67;;
24485;SDS011;13449;49.374;8.584;2023-08-01T04:26:29;10.90;;;3.30;;
24485;SDS011;13449;49.374;8.584;2023-08-01T04:28:58;9.48;;;3.58;;
24485;SDS011;13449;49.374;8.584;2023-08-01T04:31:29;11.20;;;3.75;;
24485;SDS011;13449;49.374;8.584;2023-08-01T04:33:58;11.68;;;4.43;;
24485;SDS011;13449;49.374;8.584;2023-08-01T04:36:24;13.35;;;3.97;;
24485;SDS011;13449;49.374;8.584;2023-08-01T04:38:51;9.18;;;3.85;;
24485;SDS011;13449;49.374;8.584;2023-08-01T04:41:20;15.43;;;3.97;;
24485;SDS011;13449;49.374;8.584;2023-08-01T04:43:51;6.25;;;3.95;;
24485;SDS011;13449;49.374;8.584;2023-08-01T04:46:23;18.52;;;3.55;;
24485;SDS011;13449;49.374;8.584;2023-08-01T04:48:55;11.30;;;4.13;;
24485;SDS011;13449;49.374;8.584;2023-08-01T04:51:24;7.35;;;3.40;;
24485;SDS011;13449;49.374;8.584;2023-08-01T04:53:51;10.07;;;4.60;;
24485;SDS011;13449;49.374;8.584;2023-08-01T04:56:18;12.60;;;4.05;;
24485;SDS011;13449;49.374;8.584;2023-08-01T04:58:44;19.50;;;4.32;;
24485;SDS011;13449;49.374;8.584;2023-08-01T05:01:11;14.45;;;3.72;;
24485;SDS011;13449;49.374;8.584;2023-08-01T05:03:37;8.40;;;3.17;;
24485;SDS011;13449;49.374;8.584;2023-08-01T05:06:04;13.73;;;4.10;;
24485;SDS011;13449;49.374;8.584;2023-08-01T05:08:30;18.20;;;4.28;;
24485;SDS011;13449;49.374;8.584;2023-08-01T05:10:57;5.13;;;3.13;;
24485;SDS011;13449;49.374;8.584;2023-08-01T05:13:23;8.88;;;3.40;;
24485;SDS011;13449;49.374;8.584;2023-08-01T05:15:52;7.88;;;3.45;;
24485;SDS011;13449;49.374;8.584;2023-08-01T05:18:19;30.45;;;3.55;;
24485;SDS011;13449;49.374;8.584;2023-08-01T05:20:45;12.15;;;3.95;;
24485;SDS011;13449;49.374;8.584;2023-08-01T05:23:12;8.48;;;3.35;;
24485;SDS011;13449;49.374;8.584;2023-08-01T05:25:38;7.28;;;3.55;;
24485;SDS011;13449;49.374;8.584;2023-08-01T05:28:05;9.60;;;3.60;;
24485;SDS011;13449;49.374;8.584;2023-08-01T05:30:34;12.25;;;3.63;;
24485;SDS011;13449;49.374;8.584;2023-08-01T05:33:01;9.60;;;3.92;;
24485;SDS011;13449;49.374;8.584;2023-08-01T05:35:27;12.70;;;3.35;;
24485;SDS011;13449;49.374;8.584;2023-08-01T05:37:54;10.18;;;3.47;;
24485;SDS011;13449;49.374;8.584;2023-08-01T05:40:20;14.60;;;4.57;;
24485;SDS011;13449;49.374;8.584;2023-08-01T05:42:47;21.17;;;4.28;;
24485;SDS011;13449;49.374;8.584;2023-08-01T05:45:13;16.65;;;4.60;;
24485;SDS011;13449;49.374;8.584;2023-08-01T05:47:40;19.77;;;5.03;;
24485;SDS011;13449;49.374;8.584;2023-08-01T05:50:07;10.23;;;3.95;;
24485;SDS011;13449;49.374;8.584;2023-08-01T05:52:34;17.58;;;4.60;;
24485;SDS011;13449;49.374;8.584;2023-08-01T05:55:03;10.00;;;4.57;;
24485;SDS011;13449;49.374;8.584;2023-08-01T05:57:32;15.35;;;4.88;;
24485;SDS011;13449;49.374;8.584;2023-08-01T05:59:59;7.75;;;3.70;;
24485;SDS011;13449;49.374;8.584;2023-08-01T06:02:25;6.80;;;4.00;;
24485;SDS011;13449;49.374;8.584;2023-08-01T06:04:52;13.35;;;4.30;;
24485;SDS011;13449;49.374;8.584;2023-08-01T06:07:18;16.55;;;4.00;;
24485;SDS011;13449;49.374;8.584;2023-08-01T06:09:50;9.52;;;4.13;;
24485;SDS011;13449;49.374;8.584;2023-08-01T06:12:19;18.08;;;4.75;;
24485;SDS011;13449;49.374;8.584;2023-08-01T06:14:46;11.02;;;4.22;;
24485;SDS011;13449;49.374;8.584;2023-08-01T06:17:13;9.65;;;4.45;;
24485;SDS011;13449;49.374;8.584;2023-08-01T06:19:40;16.70;;;4.80;;
24485;SDS011;13449;49.374;8.584;2023-08-01T06:22:07;15.15;;;4.88;;
24485;SDS011;13449;49.374;8.584;2023-08-01T06:24:36;9.95;;;3.90;;
24485;SDS011;13449;49.374;8.584;2023-08-01T06:27:02;9.90;;;4.88;;
24485;SDS011;13449;49.374;8.584;2023-08-01T06:29:29;11.15;;;4.63;;
24485;SDS011;13449;49.374;8.584;2023-08-01T06:31:55;15.90;;;4.78;;
24485;SDS011;13449;49.374;8.584;2023-08-01T06:34:22;12.20;;;4.88;;
24485;SDS011;13449;49.374;8.584;2023-08-01T06:36:48;18.35;;;4.60;;
24485;SDS011;13449;49.374;8.584;2023-08-01T06:39:15;12.23;;;4.25;;
24485;SDS011;13449;49.374;8.584;2023-08-01T06:41:41;14.65;;;4.40;;
24485;SDS011;13449;49.374;8.584;2023-08-01T06:44:08;15.57;;;4.22;;
24485;SDS011;13449;49.374;8.584;2023-08-01T06:46:36;16.40;;;4.63;;
24485;SDS011;13449;49.374;8.584;2023-08-01T06:49:03;12.73;;;4.28;;
24485;SDS011;13449;49.374;8.584;2023-08-01T06:51:29;13.13;;;4.60;;
24485;SDS011;13449;49.374;8.584;2023-08-01T06:53:56;12.75;;;5.22;;
24485;SDS011;13449;49.374;8.584;2023-08-01T06:56:22;10.18;;;4.05;;
24485;SDS011;13449;49.374;8.584;2023-08-01T06:58:49;9.05;;;4.18;;
24485;SDS011;13449;49.374;8.584;2023-08-01T07:01:16;11.65;;;3.88;;
24485;SDS011;13449;49.374;8.584;2023-08-01T07:03:43;10.77;;;3.65;;
24485;SDS011;13449;49.374;8.584;2023-08-01T07:06:09;12.55;;;3.95;;
24485;SDS011;13449;49.374;8.584;2023-08-01T07:08:36;12.40;;;4.15;;
24485;SDS011;13449;49.374;8.584;2023-08-01T07:11:03;8.98;;;3.00;;
24485;SDS011;13449;49.374;8.584;2023-08-01T07:13:29;9.93;;;3.47;;
24485;SDS011;13449;49.374;8.584;2023-08-01T07:15:58;6.13;;;3.45;;
24485;SDS011;13449;49.374;8.584;2023-08-01T07:18:26;10.68;;;3.28;;
24485;SDS011;13449;49.374;8.584;2023-08-01T07:20:59;7.72;;;3.42;;
24485;SDS011;13449;49.374;8.584;2023-08-01T07:23:33;10.13;;;3.05;;
24485;SDS011;13449;49.374;8.584;2023-08-01T07:26:02;7.13;;;3.22;;
24485;SDS011;13449;49.374;8.584;2023-08-01T07:28:29;15.63;;;3.92;;
24485;SDS011;13449;49.374;8.584;2023-08-01T07:31:02;4.95;;;2.58;;
24485;SDS011;13449;49.374;8.584;2023-08-01T07:33:31;10.75;;;3.45;;
24485;SDS011;13449;49.374;8.584;2023-08-01T07:36:01;8.30;;;2.65;;
24485;SDS011;13449;49.374;8.584;2023-08-01T07:38:27;4.15;;;2.42;;
24485;SDS011;13449;49.374;8.584;2023-08-01T07:40:54;5.18;;;3.10;;
24485;SDS011;13449;49.374;8.584;2023-08-01T07:43:21;5.80;;;2.85;;
24485;SDS011;13449;49.374;8.584;2023-08-01T07:45:47;6.53;;;2.75;;
24485;SDS011;13449;49.374;8.584;2023-08-01T07:48:16;9.45;;;3.22;;
24485;SDS011;13449;49.374;8.584;2023-08-01T07:50:43;6.38;;;3.03;;
24485;SDS011;13449;49.374;8.584;2023-08-01T07:53:09;6.80;;;2.90;;
24485;SDS011;13449;49.374;8.584;2023-08-01T07:55:36;6.28;;;2.47;;
24485;SDS011;13449;49.374;8.584;2023-08-01T07:58:02;17.75;;;3.08;;
24485;SDS011;13449;49.374;8.584;2023-08-01T08:00:29;12.23;;;2.88;;
24485;SDS011;13449;49.374;8.584;2023-08-01T08:02:55;4.65;;;2.58;;
24485;SDS011;13449;49.374;8.584;2023-08-01T08:05:22;5.75;;;2.78;;
24485;SDS011;13449;49.374;8.584;2023-08-01T08:07:51;3.70;;;2.55;;
24485;SDS011;13449;49.374;8.584;2023-08-01T08:10:18;6.35;;;2.65;;
24485;SDS011;13449;49.374;8.584;2023-08-01T08:12:45;6.60;;;2.67;;
24485;SDS011;13449;49.374;8.584;2023-08-01T08:15:11;6.97;;;2.58;;
24485;SDS011;13449;49.374;8.584;2023-08-01T08:17:39;7.05;;;2.75;;
24485;SDS011;13449;49.374;8.584;2023-08-01T08:20:06;6.50;;;2.80;;
24485;SDS011;13449;49.374;8.584;2023-08-01T08:22:33;9.73;;;3.17;;
24485;SDS011;13449;49.374;8.584;2023-08-01T08:25:00;4.22;;;2.80;;
24485;SDS011;13449;49.374;8.584;2023-08-01T08:27:26;4.13;;;2.80;;
24485;SDS011;13449;49.374;8.584;2023-08-01T08:29:53;5.35;;;2.58;;
24485;SDS011;13449;49.374;8.584;2023-08-01T08:32:22;5.03;;;2.53;;
24485;SDS011;13449;49.374;8.584;2023-08-01T08:34:49;6.55;;;2.40;;
24485;SDS011;13449;49.374;8.584;2023-08-01T08:37:15;6.15;;;2.28;;
24485;SDS011;13449;49.374;8.584;2023-08-01T08:39:41;5.30;;;1.90;;
24485;SDS011;13449;49.374;8.584;2023-08-01T08:42:10;6.35;;;2.50;;
24485;SDS011;13449;49.374;8.584;2023-08-01T08:44:42;11.27;;;2.15;;
24485;SDS011;13449;49.374;8.584;2023-08-01T08:47:10;7.97;;;2.30;;
24485;SDS011;13449;49.374;8.584;2023-08-01T08:49:38;3.42;;;1.88;;
24485;SDS011;13449;49.374;8.584;2023-08-01T08:52:06;2.78;;;2.08;;
24485;SDS011;13449;49.374;8.584;2023-08-01T08:54:33;4.93;;;1.67;;
24485;SDS011;13449;49.374;8.584;2023-08-01T08:57:03;6.07;;;1.92;;
24485;SDS011;13449;49.374;8.584;2023-08-01T08:59:32;4.30;;;1.38;;
24485;SDS011;13449;49.374;8.584;2023-08-01T09:02:02;2.28;;;1.50;;
24485;SDS011;13449;49.374;8.584;2023-08-01T09:07:06;3.00;;;1.45;;
24485;SDS011;13449;49.374;8.584;2023-08-01T09:09:35;2.67;;;1.58;;
24485;SDS011;13449;49.374;8.584;2023-08-01T09:12:04;1.88;;;0.95;;
24485;SDS011;13449;49.374;8.584;2023-08-01T09:14:32;7.20;;;0.90;;
24485;SDS011;13449;49.374;8.584;2023-08-01T09:17:06;1.95;;;0.75;;
24485;SDS011;13449;49.374;8.584;2023-08-01T09:19:35;3.70;;;0.77;;
24485;SDS011;13449;49.374;8.584;2023-08-01T09:22:09;1.42;;;0.65;;
24485;SDS011;13449;49.374;8.584;2023-08-01T09:24:36;0.55;;;0.55;;
24485;SDS011;13449;49.374;8.584;2023-08-01T09:27:03;1.38;;;0.70;;
24485;SDS011;13449;49.374;8.584;2023-08-01T09:29:34;2.35;;;0.95;;
24485;SDS011;13449;49.374;8.584;2023-08-01T09:32:10;1.42;;;0.60;;
24485;SDS011;13449;49.374;8.584;2023-08-01T09:34:39;3.13;;;1.55;;
24485;SDS011;13449;49.374;8.584;2023-08-01T09:37:07;6.38;;;1.50;;
24485;SDS011;13449;49.374;8.584;2023-08-01T09:39:33;1.80;;;1.00;;
24485;SDS011;13449;49.374;8.584;2023-08-01T09:42:06;2.95;;;1.05;;
24485;SDS011;13449;49.374;8.584;2023-08-01T09:44:34;1.50;;;1.00;;
24485;SDS011;13449;49.374;8.584;2023-08-01T09:47:04;2.92;;;0.93;;
24485;SDS011;13449;49.374;8.584;2023-08-01T09:49:35;1.13;;;1.02;;
24485;SDS011;13449;49.374;8.584;2023-08-01T09:52:03;1.10;;;0.82;;
24485;SDS011;13449;49.374;8.584;2023-08-01T09:54:30;1.67;;;0.85;;
24485;SDS011;13449;49.374;8.584;2023-08-01T09:56:59;0.75;;;0.75;;
24485;SDS011;13449;49.374;8.584;2023-08-01T09:59:28;1.27;;;0.80;;
24485;SDS011;13449;49.374;8.584;2023-08-01T10:01:56;1.85;;;0.70;;
24485;SDS011;13449;49.374;8.584;2023-08-01T10:04:28;0.85;;;0.80;;
24485;SDS011;13449;49.374;8.584;2023-08-01T10:07:00;1.38;;;0.68;;
24485;SDS011;13449;49.374;8.584;2023-08-01T10:09:33;2.05;;;0.65;;
24485;SDS011;13449;49.374;8.584;2023-08-01T10:12:01;0.85;;;0.70;;
24485;SDS011;13449;49.374;8.584;2023-08-01T10:14:37;2.10;;;1.15;;
24485;SDS011;13449;49.374;8.584;2023-08-01T10:17:06;2.40;;;0.63;;
24485;SDS011;13449;49.374;8.584;2023-08-01T10:19:34;0.88;;;0.80;;
24485;SDS011;13449;49.374;8.584;2023-08-01T10:22:01;1.77;;;0.60;;
24485;SDS011;13449;49.374;8.584;2023-08-01T10:24:32;2.38;;;0.80;;
24485;SDS011;13449;49.374;8.584;2023-08-01T10:27:14;0.90;;;0.60;;
24485;SDS011;13449;49.374;8.584;2023-08-01T10:29:58;2.45;;;0.60;;
24485;SDS011;13449;49.374;8.584;2023-08-01T10:35:04;1.00;;;0.60;;
24485;SDS011;13449;49.374;8.584;2023-08-01T10:37:40;0.75;;;0.60;;
24485;SDS011;13449;49.374;8.584;2023-08-01T10:40:07;2.45;;;0.60;;
24485;SDS011;13449;49.374;8.584;2023-08-01T10:42:38;1.15;;;0.80;;
24485;SDS011;13449;49.374;8.584;2023-08-01T10:45:21;2.15;;;0.93;;
24485;SDS011;13449;49.374;8.584;2023-08-01T10:47:51;0.85;;;0.68;;
24485;SDS011;13449;49.374;8.584;2023-08-01T10:50:20;0.50;;;0.50;;
24485;SDS011;13449;49.374;8.584;2023-08-01T10:52:49;3.60;;;0.65;;
24485;SDS011;13449;49.374;8.584;2023-08-01T10:55:17;2.08;;;0.70;;
24485;SDS011;13449;49.374;8.584;2023-08-01T10:57:48;2.20;;;0.80;;
24485;SDS011;13449;49.374;8.584;2023-08-01T11:00:16;0.85;;;0.75;;
24485;SDS011;13449;49.374;8.584;2023-08-01T11:02:48;0.70;;;0.63;;
24485;SDS011;13449;49.374;8.584;2023-08-01T11:05:18;0.68;;;0.68;;
24485;SDS011;13449;49.374;8.584;2023-08-01T11:07:54;1.08;;;0.75;;
24485;SDS011;13449;49.374;8.584;2023-08-01T11:10:29;2.00;;;0.77;;
24485;SDS011;13449;49.374;8.584;2023-08-01T11:12:57;2.80;;;0.65;;
24485;SDS011;13449;49.374;8.584;2023-08-01T11:15:28;1.20;;;0.50;;
24485;SDS011;13449;49.374;8.584;2023-08-01T11:17:55;1.85;;;0.95;;
24485;SDS011;13449;49.374;8.584;2023-08-01T11:20:23;2.47;;;0.80;;
24485;SDS011;13449;49.374;8.584;2023-08-01T11:28:03;1.20;;;0.60;;
24485;SDS011;13449;49.374;8.584;2023-08-01T11:30:43;1.05;;;0.85;;
24485;SDS011;13449;49.374;8.584;2023-08-01T11:33:15;3.30;;;0.60;;
24485;SDS011;13449;49.374;8.584;2023-08-01T11:35:42;1.35;;;0.80;;
24485;SDS011;13449;49.374;8.584;2023-08-01T11:38:09;3.90;;;0.98;;
24485;SDS011;13449;49.374;8.584;2023-08-01T11:40:36;0.70;;;0.65;;
24485;SDS011;13449;49.374;8.584;2023-08-01T11:43:03;1.27;;;0.60;;
24485;SDS011;13449;49.374;8.584;2023-08-01T11:45:32;3.05;;;0.60;;
24485;SDS011;13449;49.374;8.584;2023-08-01T11:47:59;0.93;;;0.73;;
24485;SDS011;13449;49.374;8.584;2023-08-01T11:50:29;2.50;;;0.80;;
24485;SDS011;13449;49.374;8.584;2023-08-01T11:52:55;1.65;;;1.00;;
24485;SDS011;13449;49.374;8.584;2023-08-01T11:55:27;2.97;;;0.80;;
24485;SDS011;13449;49.374;8.584;2023-08-01T11:57:57;0.88;;;0.68;;
24485;SDS011;13449;49.374;8.584;2023-08-01T12:00:27;2.28;;;0.90;;
24485;SDS011;13449;49.374;8.584;2023-08-01T12:03:07;1.85;;;0.70;;
24485;SDS011;13449;49.374;8.584;2023-08-01T12:05:41;1.58;;;0.80;;
24485;SDS011;13449;49.374;8.584;2023-08-01T12:08:12;0.98;;;0.65;;
24485;SDS011;13449;49.374;8.584;2023-08-01T12:10:44;1.65;;;0.85;;
24485;SDS011;13449;49.374;8.584;2023-08-01T12:13:20;2.65;;;0.77;;
24485;SDS011;13449;49.374;8.584;2023-08-01T12:15:51;11.13;;;0.88;;
24485;SDS011;13449;49.374;8.584;2023-08-01T12:18:20;5.45;;;0.85;;
24485;SDS011;13449;49.374;8.584;2023-08-01T12:20:53;2.10;;;0.80;;
24485;SDS011;13449;49.374;8.584;2023-08-01T12:23:20;1.00;;;0.80;;
24485;SDS011;13449;49.374;8.584;2023-08-01T12:25:47;4.93;;;0.88;;
24485;SDS011;13449;49.374;8.584;2023-08-01T12:28:15;2.42;;;1.05;;
24485;SDS011;13449;49.374;8.584;2023-08-01T12:30:43;1.23;;;0.70;;
24485;SDS011;13449;49.374;8.584;2023-08-01T12:33:10;5.75;;;0.90;;
24485;SDS011;13449;49.374;8.584;2023-08-01T12:35:40;2.70;;;0.90;;
24485;SDS011;13449;49.374;8.584;2023-08-01T12:38:07;1.38;;;1.00;;
24485;SDS011;13449;49.374;8.584;2023-08-01T12:40:39;3.20;;;1.23;;
24485;SDS011;13449;49.374;8.584;2023-08-01T12:43:06;2.55;;;0.75;;
24485;SDS011;13449;49.374;8.584;2023-08-01T12:45:32;9.88;;;1.48;;
24485;SDS011;13449;49.374;8.584;2023-08-01T12:47:59;1.40;;;0.90;;
24485;SDS011;13449;49.374;8.584;2023-08-01T12:50:26;2.33;;;0.95;;
24485;SDS011;13449;49.374;8.584;2023-08-01T12:52:53;5.10;;;0.90;;
24485;SDS011;13449;49.374;8.584;2023-08-01T12:55:19;4.80;;;1.08;;
24485;SDS011;13449;49.374;8.584;2023-08-01T12:57:46;2.00;;;0.70;;
24485;SDS011;13449;49.374;8.584;2023-08-01T13:00:12;1.58;;;1.27;;
24485;SDS011;13449;49.374;8.584;2023-08-01T13:02:39;1.80;;;0.88;;
24485;SDS011;13449;49.374;8.584;2023-08-01T13:05:06;1.35;;;1.13;;
24485;SDS011;13449;49.374;8.584;2023-08-01T13:07:33;0.93;;;0.70;;
24485;SDS011;13449;49.374;8.584;2023-08-01T13:10:03;3.63;;;0.90;;
24485;SDS011;13449;49.374;8.584;2023-08-01T13:12:30;1.17;;;0.80;;
24485;SDS011;13449;49.374;8.584;2023-08-01T13:14:56;1.48;;;0.80;;
24485;SDS011;13449;49.374;8.584;2023-08-01T13:17:42;2.08;;;0.93;;
24485;SDS011;13449;49.374;8.584;2023-08-01T13:20:11;5.57;;;1.45;;
24485;SDS011;13449;49.374;8.584;2023-08-01T13:22:38;1.77;;;0.90;;
24485;SDS011;13449;49.374;8.584;2023-08-01T13:25:04;5.38;;;0.93;;
24485;SDS011;13449;49.374;8.584;2023-08-01T13:27:33;0.95;;;0.70;;
24485;SDS011;13449;49.374;8.584;2023-08-01T13:30:04;1.75;;;0.73;;
24485;SDS011;13449;49.374;8.584;2023-08-01T13:32:31;5.15;;;1.27;;
24485;SDS011;13449;49.374;8.584;2023-08-01T13:35:00;1.40;;;0.90;;
24485;SDS011;13449;49.374;8.584;2023-08-01T13:37:29;0.80;;;0.50;;
24485;SDS011;13449;49.374;8.584;2023-08-01T13:39:57;2.45;;;1.33;;
24485;SDS011;13449;49.374;8.584;2023-08-01T13:42:24;1.90;;;0.70;;
24485;SDS011;13449;49.374;8.584;2023-08-01T13:44:50;0.90;;;0.50;;
24485;SDS011;13449;49.374;8.584;2023-08-01T13:47:19;1.10;;;0.80;;
24485;SDS011;13449;49.374;8.584;2023-08-01T13:49:46;3.97;;;0.82;;
24485;SDS011;13449;49.374;8.584;2023-08-01T13:52:13;0.80;;;0.60;;
24485;SDS011;13449;49.374;8.584;2023-08-01T13:54:39;2.97;;;0.70;;
24485;SDS011;13449;49.374;8.584;2023-08-01T13:57:06;6.80;;;1.05;;
24485;SDS011;13449;49.374;8.584;2023-08-01T13:59:33;1.92;;;0.88;;
24485;SDS011;13449;49.374;8.584;2023-08-01T14:02:02;2.45;;;0.88;;
24485;SDS011;13449;49.374;8.584;2023-08-01T14:04:29;6.05;;;1.00;;
24485;SDS011;13449;49.374;8.584;2023-08-01T14:06:56;1.48;;;0.73;;
24485;SDS011;13449;49.374;8.584;2023-08-01T14:09:22;1.95;;;1.10;;
24485;SDS011;13449;49.374;8.584;2023-08-01T14:11:49;0.85;;;0.70;;
24485;SDS011;13449;49.374;8.584;2023-08-01T14:14:15;3.22;;;1.00;;
24485;SDS011;13449;49.374;8.584;2023-08-01T14:16:43;1.88;;;0.77;;
24485;SDS011;13449;49.374;8.584;2023-08-01T14:19:13;4.20;;;1.00;;
24485;SDS011;13449;49.374;8.584;2023-08-01T14:21:39;1.05;;;0.90;;
24485;SDS011;13449;49.374;8.584;2023-08-01T14:24:06;3.47;;;1.17;;
24485;SDS011;13449;49.374;8.584;2023-08-01T14:26:32;2.47;;;0.82;;
24485;SDS011;13449;49.374;8.584;2023-08-01T14:29:01;2.05;;;0.63;;
24485;SDS011;13449;49.374;8.584;2023-08-01T14:31:27;1.83;;;0.90;;
24485;SDS011;13449;49.374;8.584;2023-08-01T14:33:54;2.05;;;0.82;;
24485;SDS011;13449;49.374;8.584;2023-08-01T14:36:20;3.33;;;0.90;;
24485;SDS011;13449;49.374;8.584;2023-08-01T14:38:47;1.45;;;0.60;;
24485;SDS011;13449;49.374;8.584;2023-08-01T14:41:23;8.82;;;1.05;;
24485;SDS011;13449;49.374;8.584;2023-08-01T14:43:55;4.65;;;1.02;;
24485;SDS011;13449;49.374;8.584;2023-08-01T14:46:22;3.85;;;0.70;;
24485;SDS011;13449;49.374;8.584;2023-08-01T14:48:48;1.75;;;0.75;;
24485;SDS011;13449;49.374;8.584;2023-08-01T14:51:15;1.83;;;0.65;;
24485;SDS011;13449;49.374;8.584;2023-08-01T14:53:41;5.70;;;0.70;;
24485;SDS011;13449;49.374;8.584;2023-08-01T14:56:08;0.90;;;0.70;;
24485;SDS011;13449;49.374;8.584;2023-08-01T14:58:34;3.63;;;0.73;;